Beaumont, Texas
Current Conditions -  °F | °C
As of 8:55 AM on Thursday 30 Oct 2014 (Local Time) from KBMT Reporting Station
Clear Clear  
Wind Chill: 58°   Ceiling: Unl
Heat Index: 58°   Visibility: 10mi
Dew Point: 48°   Wind: 5mph
Humidity: 70%   Direction: 50°NE
Pressure: 30.15"   Gusts: NA
Location:  30.09°N, 94.1°W
Report Text: KBMT 301355Z AUTO 05004KT 10SM CLR 14/09 A3015 RMK AO2 T01440090
Loading
Personal Weather Stations






























Interactive Weather Map
Tropical Storm Tracking
New forecast layout! Learn more

10-Day Weather Forecast

Advertisements
Track Severe Weather on mobile